Roberta, Georgia
Current Conditions -  °F | °C
As of 11:15 AM on Friday 24 Oct 2014 (Local Time) from KPXE Reporting Station
Clear Clear  
Wind Chill: 69°   Ceiling: Unl
Heat Index: 69°   Visibility: 10mi
Dew Point: 46°   Wind: 0mph
Humidity: 44%   Direction: NA
Pressure: 30.08"   Gusts: NA
Location:  32.72°N, 84.01°W
Report Text: KPXE 241515Z AUTO 00000KT 10SM CLR 21/08 A3008 RMK AO2 T02050079
Loading
Personal Weather Stations






























Interactive Weather Map New forecast layout! Learn more

10-Day Weather Forecast

Advertisements
Track Severe Weather on mobile